SVW1FX LROP-EPZG
Flight info
| Callsign | SVW1FX |
|---|---|
| Flight time | 1h 39m |
| Altitude | 40000 |
| Route | BUKEL DCT KARIL DCT KEKED DCT KELEL P193 ELGOX DCT NUDRO T710 VAGON DCT XIDNA L617 ADVAB L980 OBOLA |
| Aircraft | B737/M-SDE2E3FGHIRWXY/LB1 |
Departure
| Time | 2026-05-04 18:22 |
|---|---|
| Airport | Bucharest Henri Coandă International Airport (LROP) |
Arrival
| Time | 2026-05-04 20:01 |
|---|---|
| Airport | Zielona Góra-Babimost Airport (EPZG) |
| Time | Latitude | Longitude | Altitude | Speed | Heading |
|---|---|---|---|---|---|
| 2026-05-04 17:49 | 44.57325 | 26.09756 | 320 ft | 0 kts | 173° |
| 2026-05-04 18:13 | 44.57324 | 26.09756 | 320 ft | 0 kts | 183° |
| 2026-05-04 18:14 | 44.57320 | 26.09752 | 320 ft | 1 kts | 213° |
| 2026-05-04 18:14 | 44.57319 | 26.09744 | 320 ft | 1 kts | 250° |
| 2026-05-04 18:14 | 44.57321 | 26.09736 | 318 ft | 1 kts | 291° |
| 2026-05-04 18:15 | 44.57338 | 26.09734 | 319 ft | 2 kts | 17° |
| 2026-05-04 18:15 | 44.57358 | 26.09766 | 320 ft | 1 kts | 71° |
| 2026-05-04 18:15 | 44.57360 | 26.09792 | 319 ft | 4 kts | 84° |
| 2026-05-04 18:16 | 44.57368 | 26.09839 | 319 ft | 5 kts | 53° |
| 2026-05-04 18:16 | 44.57397 | 26.09849 | 320 ft | 5 kts | 355° |
| 2026-05-04 18:16 | 44.57440 | 26.09842 | 320 ft | 8 kts | 354° |
| 2026-05-04 18:17 | 44.57560 | 26.09813 | 319 ft | 8 kts | 327° |
| 2026-05-04 18:17 | 44.57587 | 26.09752 | 318 ft | 7 kts | 281° |
| 2026-05-04 18:17 | 44.57576 | 26.09574 | 320 ft | 11 kts | 263° |
| 2026-05-04 18:18 | 44.57567 | 26.09455 | 318 ft | 13 kts | 262° |
| 2026-05-04 18:18 | 44.57558 | 26.09321 | 319 ft | 14 kts | 264° |
| 2026-05-04 18:18 | 44.57547 | 26.09180 | 319 ft | 15 kts | 264° |
| 2026-05-04 18:18 | 44.57536 | 26.09032 | 319 ft | 16 kts | 264° |
| 2026-05-04 18:19 | 44.57513 | 26.08728 | 320 ft | 15 kts | 263° |
| 2026-05-04 18:19 | 44.57503 | 26.08595 | 320 ft | 11 kts | 264° |
| 2026-05-04 18:19 | 44.57504 | 26.08506 | 320 ft | 8 kts | 288° |
| 2026-05-04 18:20 | 44.57538 | 26.08461 | 320 ft | 6 kts | 343° |
| 2026-05-04 18:20 | 44.57576 | 26.08454 | 320 ft | 5 kts | 354° |
| 2026-05-04 18:20 | 44.57607 | 26.08450 | 321 ft | 4 kts | 355° |
| 2026-05-04 18:20 | 44.57639 | 26.08448 | 321 ft | 5 kts | 357° |
| 2026-05-04 18:21 | 44.57669 | 26.08480 | 319 ft | 7 kts | 76° |
| 2026-05-04 18:21 | 44.57676 | 26.08573 | 322 ft | 16 kts | 84° |
| 2026-05-04 18:21 | 44.57716 | 26.09118 | 318 ft | 100 kts | 84° |
| 2026-05-04 18:21 | 44.57815 | 26.10438 | 422 ft | 161 kts | 84° |
| 2026-05-04 18:22 | 44.57932 | 26.12047 | 1226 ft | 174 kts | 84° |
| 2026-05-04 18:22 | 44.58051 | 26.13817 | 1964 ft | 193 kts | 83° |
| 2026-05-04 18:22 | 44.58154 | 26.15086 | 2579 ft | 195 kts | 77° |
| 2026-05-04 18:22 | 44.58797 | 26.16790 | 3207 ft | 211 kts | 39° |
| 2026-05-04 18:23 | 44.60773 | 26.17595 | 3716 ft | 250 kts | 351° |
| 2026-05-04 18:23 | 44.62370 | 26.16621 | 4738 ft | 254 kts | 329° |
| 2026-05-04 18:23 | 44.63801 | 26.15179 | 5888 ft | 253 kts | 327° |
| 2026-05-04 18:23 | 44.64775 | 26.14194 | 6613 ft | 256 kts | 329° |
| 2026-05-04 18:24 | 44.66231 | 26.12758 | 7599 ft | 262 kts | 330° |
| 2026-05-04 18:24 | 44.67743 | 26.11286 | 8703 ft | 266 kts | 330° |
| 2026-05-04 18:24 | 44.69267 | 26.09809 | 9844 ft | 269 kts | 331° |
| 2026-05-04 18:24 | 44.70840 | 26.08293 | 10694 ft | 283 kts | 331° |
| 2026-05-04 18:25 | 44.72559 | 26.06651 | 10964 ft | 316 kts | 331° |
| 2026-05-04 18:25 | 44.74438 | 26.04854 | 11495 ft | 336 kts | 331° |
| 2026-05-04 18:25 | 44.76401 | 26.02966 | 12385 ft | 343 kts | 331° |
| 2026-05-04 18:25 | 44.78385 | 26.01052 | 13386 ft | 349 kts | 331° |
| 2026-05-04 18:26 | 44.80407 | 25.99101 | 14335 ft | 356 kts | 330° |
| 2026-05-04 18:26 | 44.82462 | 25.97119 | 15289 ft | 361 kts | 330° |
| 2026-05-04 18:26 | 44.84550 | 25.95104 | 16258 ft | 366 kts | 330° |
| 2026-05-04 18:26 | 44.86670 | 25.93058 | 17150 ft | 374 kts | 330° |
| 2026-05-04 18:27 | 44.88838 | 25.90965 | 18074 ft | 380 kts | 330° |
| 2026-05-04 18:27 | 44.91035 | 25.88842 | 18933 ft | 385 kts | 329° |
| 2026-05-04 18:27 | 44.93252 | 25.86695 | 19864 ft | 387 kts | 328° |
| 2026-05-04 18:27 | 44.95469 | 25.84546 | 20800 ft | 388 kts | 328° |
| 2026-05-04 18:28 | 44.97705 | 25.82377 | 21688 ft | 391 kts | 327° |
| 2026-05-04 18:28 | 44.99952 | 25.80195 | 22542 ft | 394 kts | 326° |
| 2026-05-04 18:28 | 45.02223 | 25.77988 | 23394 ft | 397 kts | 326° |
| 2026-05-04 18:28 | 45.04476 | 25.75799 | 24130 ft | 399 kts | 326° |
| 2026-05-04 18:29 | 45.06787 | 25.73554 | 24713 ft | 405 kts | 326° |
| 2026-05-04 18:29 | 45.09088 | 25.71204 | 25225 ft | 412 kts | 322° |
| 2026-05-04 18:29 | 45.11361 | 25.68691 | 25820 ft | 416 kts | 321° |
| 2026-05-04 18:29 | 45.13633 | 25.66106 | 26435 ft | 420 kts | 321° |
| 2026-05-04 18:30 | 45.18211 | 25.60842 | 27574 ft | 428 kts | 320° |
| 2026-05-04 18:30 | 45.20537 | 25.58170 | 28122 ft | 433 kts | 320° |
| 2026-05-04 18:30 | 45.22887 | 25.55477 | 28633 ft | 436 kts | 320° |
| 2026-05-04 18:31 | 45.25259 | 25.52764 | 29127 ft | 440 kts | 320° |
| 2026-05-04 18:31 | 45.27649 | 25.50031 | 29594 ft | 444 kts | 319° |
| 2026-05-04 18:31 | 45.30069 | 25.47260 | 30084 ft | 447 kts | 319° |
| 2026-05-04 18:31 | 45.32495 | 25.44489 | 30536 ft | 448 kts | 319° |
| 2026-05-04 18:32 | 45.34924 | 25.41710 | 30962 ft | 449 kts | 319° |
| 2026-05-04 18:32 | 45.37362 | 25.38921 | 31352 ft | 450 kts | 319° |
| 2026-05-04 18:32 | 45.39798 | 25.36128 | 31806 ft | 450 kts | 319° |
| 2026-05-04 18:32 | 45.42230 | 25.33330 | 32331 ft | 447 kts | 320° |
| 2026-05-04 18:33 | 45.44641 | 25.30557 | 32828 ft | 446 kts | 320° |
| 2026-05-04 18:33 | 45.47048 | 25.27784 | 33285 ft | 445 kts | 320° |
| 2026-05-04 18:33 | 45.49453 | 25.25012 | 33737 ft | 444 kts | 320° |
| 2026-05-04 18:33 | 45.51807 | 25.22295 | 34265 ft | 438 kts | 321° |
| 2026-05-04 18:34 | 45.54160 | 25.19576 | 35191 ft | 424 kts | 322° |
| 2026-05-04 18:34 | 45.56412 | 25.16968 | 35617 ft | 423 kts | 322° |
| 2026-05-04 18:34 | 45.58715 | 25.14299 | 35760 ft | 429 kts | 322° |
| 2026-05-04 18:34 | 45.61043 | 25.11595 | 35861 ft | 435 kts | 321° |
| 2026-05-04 18:35 | 45.63416 | 25.08843 | 35898 ft | 442 kts | 321° |
| 2026-05-04 18:35 | 45.65811 | 25.06063 | 36077 ft | 445 kts | 321° |
| 2026-05-04 18:35 | 45.68210 | 25.03274 | 36456 ft | 443 kts | 322° |
| 2026-05-04 18:35 | 45.70592 | 25.00500 | 36888 ft | 440 kts | 322° |
| 2026-05-04 18:36 | 45.72970 | 24.97728 | 37231 ft | 440 kts | 322° |
| 2026-05-04 18:36 | 45.75343 | 24.94959 | 37497 ft | 441 kts | 322° |
| 2026-05-04 18:36 | 45.77724 | 24.92178 | 37778 ft | 441 kts | 322° |
| 2026-05-04 18:36 | 45.80093 | 24.89407 | 38117 ft | 440 kts | 322° |
| 2026-05-04 18:37 | 45.82466 | 24.86627 | 38452 ft | 439 kts | 322° |
| 2026-05-04 18:37 | 45.84831 | 24.83854 | 38730 ft | 440 kts | 322° |
| 2026-05-04 18:37 | 45.87198 | 24.81075 | 38946 ft | 440 kts | 322° |
| 2026-05-04 18:37 | 45.89571 | 24.78287 | 39133 ft | 441 kts | 322° |
| 2026-05-04 18:38 | 45.91948 | 24.75490 | 39330 ft | 441 kts | 322° |
| 2026-05-04 18:38 | 45.94321 | 24.72695 | 39538 ft | 442 kts | 322° |
| 2026-05-04 18:38 | 45.96697 | 24.69894 | 39746 ft | 442 kts | 322° |
| 2026-05-04 18:38 | 45.99074 | 24.67088 | 39947 ft | 442 kts | 322° |
| 2026-05-04 18:39 | 46.01462 | 24.64265 | 40058 ft | 445 kts | 322° |
| 2026-05-04 18:39 | 46.06257 | 24.58589 | 40064 ft | 446 kts | 322° |
| 2026-05-04 18:40 | 46.11023 | 24.52933 | 40051 ft | 441 kts | 322° |
| 2026-05-04 18:40 | 46.15733 | 24.47330 | 40050 ft | 437 kts | 322° |
| 2026-05-04 18:41 | 46.20404 | 24.41762 | 40055 ft | 434 kts | 322° |
| 2026-05-04 18:41 | 46.25051 | 24.36209 | 40064 ft | 435 kts | 321° |
| 2026-05-04 18:42 | 46.29755 | 24.30579 | 40071 ft | 444 kts | 321° |
| 2026-05-04 18:42 | 46.34511 | 24.24871 | 40055 ft | 444 kts | 321° |
| 2026-05-04 18:43 | 46.39232 | 24.19190 | 40060 ft | 444 kts | 321° |
| 2026-05-04 18:43 | 46.43976 | 24.13469 | 40062 ft | 443 kts | 321° |
| 2026-05-04 18:44 | 46.48710 | 24.07747 | 40065 ft | 443 kts | 321° |
| 2026-05-04 18:44 | 46.53436 | 24.02021 | 40059 ft | 442 kts | 321° |
| 2026-05-04 18:45 | 46.58150 | 23.96297 | 40065 ft | 441 kts | 321° |
| 2026-05-04 18:45 | 46.62853 | 23.90572 | 40066 ft | 441 kts | 321° |
| 2026-05-04 18:46 | 46.67550 | 23.84840 | 40074 ft | 440 kts | 321° |
| 2026-05-04 18:46 | 46.72243 | 23.79101 | 40068 ft | 440 kts | 321° |
| 2026-05-04 18:47 | 46.76922 | 23.73366 | 40073 ft | 440 kts | 321° |
| 2026-05-04 18:47 | 46.81602 | 23.67615 | 40077 ft | 440 kts | 321° |
| 2026-05-04 18:48 | 46.86273 | 23.61862 | 40078 ft | 440 kts | 321° |
| 2026-05-04 18:48 | 46.90929 | 23.56113 | 40075 ft | 440 kts | 321° |
| 2026-05-04 18:49 | 46.95600 | 23.50333 | 40080 ft | 440 kts | 321° |
| 2026-05-04 18:49 | 47.00273 | 23.44538 | 40080 ft | 440 kts | 321° |
| 2026-05-04 18:50 | 47.04943 | 23.38731 | 40081 ft | 441 kts | 321° |
| 2026-05-04 18:50 | 47.09644 | 23.32871 | 40080 ft | 441 kts | 321° |
| 2026-05-04 18:51 | 47.14291 | 23.27066 | 40072 ft | 441 kts | 320° |
| 2026-05-04 18:51 | 47.18961 | 23.21217 | 40083 ft | 441 kts | 320° |
| 2026-05-04 18:52 | 47.23632 | 23.15354 | 40077 ft | 442 kts | 320° |
| 2026-05-04 18:52 | 47.28305 | 23.09474 | 40079 ft | 442 kts | 320° |
| 2026-05-04 18:53 | 47.32978 | 23.03578 | 40083 ft | 442 kts | 320° |
| 2026-05-04 18:53 | 47.37656 | 22.97663 | 40065 ft | 442 kts | 320° |
| 2026-05-04 18:54 | 47.42316 | 22.91757 | 40060 ft | 442 kts | 320° |
| 2026-05-04 18:54 | 47.46976 | 22.85835 | 40063 ft | 442 kts | 320° |
| 2026-05-04 18:55 | 47.51631 | 22.79905 | 40057 ft | 441 kts | 320° |
| 2026-05-04 18:55 | 47.58562 | 22.70927 | 40062 ft | 441 kts | 318° |
| 2026-05-04 18:56 | 47.63011 | 22.64688 | 40048 ft | 440 kts | 317° |
| 2026-05-04 18:56 | 47.67441 | 22.58402 | 40052 ft | 440 kts | 317° |
| 2026-05-04 18:57 | 47.71871 | 22.52147 | 40061 ft | 439 kts | 317° |
| 2026-05-04 18:57 | 47.76306 | 22.45900 | 40060 ft | 439 kts | 317° |
| 2026-05-04 18:58 | 47.80738 | 22.39653 | 40064 ft | 439 kts | 317° |
| 2026-05-04 18:58 | 47.85162 | 22.33402 | 40063 ft | 438 kts | 317° |
| 2026-05-04 18:59 | 47.89582 | 22.27141 | 40063 ft | 438 kts | 317° |
| 2026-05-04 18:59 | 47.93995 | 22.20873 | 40065 ft | 438 kts | 317° |
| 2026-05-04 19:00 | 47.98406 | 22.14593 | 40060 ft | 438 kts | 317° |
| 2026-05-04 19:00 | 48.02774 | 22.08357 | 40056 ft | 437 kts | 317° |
| 2026-05-04 19:01 | 48.07169 | 22.02070 | 40058 ft | 437 kts | 317° |
| 2026-05-04 19:01 | 48.11555 | 21.95777 | 40049 ft | 437 kts | 317° |
| 2026-05-04 19:02 | 48.15940 | 21.89472 | 40053 ft | 437 kts | 317° |
| 2026-05-04 19:02 | 48.20322 | 21.83154 | 40051 ft | 437 kts | 316° |
| 2026-05-04 19:03 | 48.24699 | 21.76829 | 40055 ft | 437 kts | 316° |
| 2026-05-04 19:03 | 48.29068 | 21.70498 | 40058 ft | 437 kts | 316° |
| 2026-05-04 19:04 | 48.33439 | 21.64149 | 40059 ft | 437 kts | 316° |
| 2026-05-04 19:04 | 48.37791 | 21.57813 | 40060 ft | 437 kts | 316° |
| 2026-05-04 19:05 | 48.42157 | 21.51438 | 40053 ft | 437 kts | 316° |
| 2026-05-04 19:05 | 48.46521 | 21.45051 | 40052 ft | 438 kts | 316° |
| 2026-05-04 19:06 | 48.50891 | 21.38639 | 40061 ft | 438 kts | 316° |
| 2026-05-04 19:06 | 48.55254 | 21.32222 | 40051 ft | 438 kts | 316° |
| 2026-05-04 19:07 | 48.59621 | 21.25782 | 40046 ft | 438 kts | 316° |
| 2026-05-04 19:07 | 48.63981 | 21.19335 | 40050 ft | 438 kts | 316° |
| 2026-05-04 19:08 | 48.67599 | 21.13974 | 40048 ft | 438 kts | 315° |
| 2026-05-04 19:08 | 48.71953 | 21.07506 | 40050 ft | 439 kts | 315° |
| 2026-05-04 19:09 | 48.77013 | 20.99968 | 40049 ft | 439 kts | 315° |
| 2026-05-04 19:09 | 48.81362 | 20.93471 | 40053 ft | 439 kts | 315° |
| 2026-05-04 19:10 | 48.84269 | 20.89120 | 40056 ft | 439 kts | 315° |
| 2026-05-04 19:10 | 48.89349 | 20.81497 | 40054 ft | 439 kts | 315° |
| 2026-05-04 19:11 | 48.93679 | 20.74982 | 40060 ft | 438 kts | 315° |
| 2026-05-04 19:11 | 48.97974 | 20.68501 | 40054 ft | 438 kts | 315° |
| 2026-05-04 19:12 | 49.04481 | 20.58761 | 40062 ft | 437 kts | 318° |
| 2026-05-04 19:13 | 49.09139 | 20.52826 | 40073 ft | 436 kts | 321° |
| 2026-05-04 19:13 | 49.13874 | 20.47049 | 40060 ft | 435 kts | 321° |
| 2026-05-04 19:14 | 49.18572 | 20.41228 | 40070 ft | 435 kts | 320° |
| 2026-05-04 19:14 | 49.23248 | 20.35345 | 40040 ft | 435 kts | 320° |
| 2026-05-04 19:15 | 49.27909 | 20.29434 | 40054 ft | 436 kts | 320° |
| 2026-05-04 19:15 | 49.32589 | 20.23480 | 40047 ft | 438 kts | 320° |
| 2026-05-04 19:16 | 49.37284 | 20.17493 | 40035 ft | 440 kts | 320° |
| 2026-05-04 19:16 | 49.41992 | 20.11476 | 40031 ft | 441 kts | 320° |
| 2026-05-04 19:17 | 49.46711 | 20.05429 | 40033 ft | 442 kts | 319° |
| 2026-05-04 19:17 | 49.51437 | 19.99358 | 40031 ft | 442 kts | 319° |
| 2026-05-04 19:18 | 49.56162 | 19.93272 | 40024 ft | 443 kts | 319° |
| 2026-05-04 19:18 | 49.60887 | 19.87170 | 40031 ft | 443 kts | 319° |
| 2026-05-04 19:19 | 49.65570 | 19.81106 | 40017 ft | 442 kts | 319° |
| 2026-05-04 19:19 | 49.70275 | 19.74998 | 40026 ft | 442 kts | 319° |
| 2026-05-04 19:20 | 49.74970 | 19.68887 | 40001 ft | 441 kts | 319° |
| 2026-05-04 19:20 | 49.79650 | 19.62779 | 40003 ft | 439 kts | 319° |
| 2026-05-04 19:21 | 49.84312 | 19.56680 | 40013 ft | 438 kts | 319° |
| 2026-05-04 19:21 | 49.88961 | 19.50581 | 39994 ft | 437 kts | 319° |
| 2026-05-04 19:22 | 49.93605 | 19.44472 | 40004 ft | 437 kts | 319° |
| 2026-05-04 19:22 | 49.98239 | 19.38361 | 39997 ft | 437 kts | 319° |
| 2026-05-04 19:23 | 50.02872 | 19.32236 | 39983 ft | 437 kts | 318° |
| 2026-05-04 19:23 | 50.07499 | 19.26101 | 39989 ft | 437 kts | 318° |
| 2026-05-04 19:24 | 50.12129 | 19.19947 | 39984 ft | 437 kts | 318° |
| 2026-05-04 19:24 | 50.16756 | 19.13781 | 39976 ft | 438 kts | 318° |
| 2026-05-04 19:25 | 50.21381 | 19.07602 | 39977 ft | 438 kts | 318° |
| 2026-05-04 19:25 | 50.25978 | 19.01443 | 39975 ft | 438 kts | 318° |
| 2026-05-04 19:26 | 50.30601 | 18.95234 | 39968 ft | 438 kts | 318° |
| 2026-05-04 19:26 | 50.35220 | 18.89012 | 39967 ft | 438 kts | 318° |
| 2026-05-04 19:27 | 50.39826 | 18.82791 | 39966 ft | 437 kts | 318° |
| 2026-05-04 19:27 | 50.44434 | 18.76552 | 39967 ft | 437 kts | 317° |
| 2026-05-04 19:28 | 50.49030 | 18.70311 | 39958 ft | 437 kts | 317° |
| 2026-05-04 19:28 | 50.53623 | 18.64059 | 39963 ft | 436 kts | 317° |
| 2026-05-04 19:29 | 50.58204 | 18.57806 | 39966 ft | 436 kts | 317° |
| 2026-05-04 19:29 | 50.62789 | 18.51531 | 39956 ft | 436 kts | 317° |
| 2026-05-04 19:30 | 50.67368 | 18.45247 | 39953 ft | 436 kts | 317° |
| 2026-05-04 19:30 | 50.71905 | 18.39005 | 39957 ft | 436 kts | 317° |
| 2026-05-04 19:31 | 50.76470 | 18.32705 | 39948 ft | 436 kts | 317° |
| 2026-05-04 19:31 | 50.81035 | 18.26390 | 39948 ft | 436 kts | 317° |
| 2026-05-04 19:32 | 50.85594 | 18.20065 | 39957 ft | 436 kts | 317° |
| 2026-05-04 19:32 | 50.90151 | 18.13728 | 39951 ft | 436 kts | 317° |
| 2026-05-04 19:33 | 50.94711 | 18.07367 | 39945 ft | 437 kts | 317° |
| 2026-05-04 19:33 | 50.99271 | 18.00990 | 39943 ft | 437 kts | 316° |
| 2026-05-04 19:34 | 51.03827 | 17.94601 | 39939 ft | 437 kts | 316° |
| 2026-05-04 19:34 | 51.08383 | 17.88194 | 39941 ft | 437 kts | 316° |
| 2026-05-04 19:35 | 51.12938 | 17.81757 | 39942 ft | 438 kts | 316° |
| 2026-05-04 19:35 | 51.17490 | 17.75308 | 39952 ft | 438 kts | 316° |
| 2026-05-04 19:36 | 51.22037 | 17.68860 | 39939 ft | 438 kts | 316° |
| 2026-05-04 19:36 | 51.26587 | 17.62391 | 39932 ft | 438 kts | 316° |
| 2026-05-04 19:37 | 51.31126 | 17.55921 | 39938 ft | 437 kts | 316° |
| 2026-05-04 19:37 | 51.35675 | 17.49418 | 39538 ft | 441 kts | 316° |
| 2026-05-04 19:37 | 51.37946 | 17.46165 | 39213 ft | 437 kts | 315° |
| 2026-05-04 19:38 | 51.40201 | 17.42933 | 38861 ft | 431 kts | 315° |
| 2026-05-04 19:38 | 51.42422 | 17.39743 | 38504 ft | 428 kts | 315° |
| 2026-05-04 19:38 | 51.44635 | 17.36559 | 38081 ft | 428 kts | 315° |
| 2026-05-04 19:38 | 51.46848 | 17.33370 | 37663 ft | 427 kts | 315° |
| 2026-05-04 19:39 | 51.49054 | 17.30187 | 37268 ft | 426 kts | 315° |
| 2026-05-04 19:39 | 51.51262 | 17.26997 | 36866 ft | 426 kts | 315° |
| 2026-05-04 19:39 | 51.53464 | 17.23812 | 36470 ft | 426 kts | 315° |
| 2026-05-04 19:39 | 51.55663 | 17.20626 | 36082 ft | 426 kts | 315° |
| 2026-05-04 19:40 | 51.57869 | 17.17426 | 35705 ft | 426 kts | 315° |
| 2026-05-04 19:40 | 51.60070 | 17.14229 | 35334 ft | 427 kts | 315° |
| 2026-05-04 19:40 | 51.62273 | 17.11025 | 34968 ft | 427 kts | 314° |
| 2026-05-04 19:40 | 51.64415 | 17.07907 | 34613 ft | 426 kts | 314° |
| 2026-05-04 19:41 | 51.66612 | 17.04705 | 34242 ft | 424 kts | 314° |
| 2026-05-04 19:41 | 51.68845 | 17.01612 | 33735 ft | 423 kts | 319° |
| 2026-05-04 19:41 | 51.71332 | 16.99012 | 32800 ft | 429 kts | 327° |
| 2026-05-04 19:41 | 51.74071 | 16.97025 | 31797 ft | 435 kts | 334° |
| 2026-05-04 19:42 | 51.76907 | 16.95282 | 30772 ft | 438 kts | 335° |
| 2026-05-04 19:42 | 51.79774 | 16.93555 | 29910 ft | 438 kts | 335° |
| 2026-05-04 19:42 | 51.82578 | 16.91860 | 29057 ft | 433 kts | 335° |
| 2026-05-04 19:42 | 51.85409 | 16.90128 | 28276 ft | 427 kts | 335° |
| 2026-05-04 19:43 | 51.88164 | 16.88421 | 27510 ft | 422 kts | 335° |
| 2026-05-04 19:43 | 51.90884 | 16.86721 | 26757 ft | 417 kts | 335° |
| 2026-05-04 19:43 | 51.93572 | 16.85032 | 25994 ft | 413 kts | 335° |
| 2026-05-04 19:43 | 51.96248 | 16.83346 | 25257 ft | 412 kts | 335° |
| 2026-05-04 19:44 | 51.98919 | 16.81661 | 24510 ft | 412 kts | 335° |
| 2026-05-04 19:44 | 52.01550 | 16.80000 | 23766 ft | 411 kts | 335° |
| 2026-05-04 19:44 | 52.04226 | 16.78311 | 22897 ft | 412 kts | 335° |
| 2026-05-04 19:44 | 52.06888 | 16.76630 | 22078 ft | 410 kts | 335° |
| 2026-05-04 19:45 | 52.09517 | 16.74902 | 21309 ft | 405 kts | 330° |
| 2026-05-04 19:45 | 52.11758 | 16.72186 | 20580 ft | 393 kts | 309° |
| 2026-05-04 19:45 | 52.13295 | 16.68643 | 19839 ft | 386 kts | 295° |
| 2026-05-04 19:45 | 52.14185 | 16.64565 | 19099 ft | 380 kts | 281° |
| 2026-05-04 19:46 | 52.14726 | 16.60376 | 18378 ft | 378 kts | 279° |
| 2026-05-04 19:46 | 52.15213 | 16.56191 | 17558 ft | 374 kts | 278° |
| 2026-05-04 19:46 | 52.15682 | 16.52124 | 16803 ft | 369 kts | 278° |
| 2026-05-04 19:46 | 52.16163 | 16.48046 | 16079 ft | 363 kts | 279° |
| 2026-05-04 19:47 | 52.16644 | 16.44045 | 15364 ft | 358 kts | 279° |
| 2026-05-04 19:47 | 52.17127 | 16.40093 | 14651 ft | 353 kts | 278° |
| 2026-05-04 19:47 | 52.17605 | 16.36195 | 13949 ft | 349 kts | 278° |
| 2026-05-04 19:47 | 52.18075 | 16.32371 | 13562 ft | 335 kts | 278° |
| 2026-05-04 19:48 | 52.18522 | 16.28745 | 13386 ft | 317 kts | 278° |
| 2026-05-04 19:48 | 52.18940 | 16.25331 | 13252 ft | 300 kts | 278° |
| 2026-05-04 19:48 | 52.19330 | 16.22084 | 13114 ft | 284 kts | 276° |
| 2026-05-04 19:48 | 52.19315 | 16.18948 | 12813 ft | 271 kts | 260° |
| 2026-05-04 19:49 | 52.19033 | 16.15978 | 12396 ft | 268 kts | 259° |
| 2026-05-04 19:49 | 52.18743 | 16.12991 | 11966 ft | 266 kts | 259° |
| 2026-05-04 19:49 | 52.18463 | 16.10013 | 11541 ft | 265 kts | 259° |
| 2026-05-04 19:49 | 52.18192 | 16.07057 | 11107 ft | 264 kts | 259° |
| 2026-05-04 19:50 | 52.17924 | 16.04106 | 10661 ft | 263 kts | 260° |
| 2026-05-04 19:50 | 52.17658 | 16.01170 | 10242 ft | 261 kts | 260° |
| 2026-05-04 19:50 | 52.17350 | 15.98264 | 9807 ft | 259 kts | 252° |
| 2026-05-04 19:50 | 52.16664 | 15.95548 | 9323 ft | 258 kts | 244° |
| 2026-05-04 19:51 | 52.15870 | 15.92919 | 9081 ft | 260 kts | 243° |
| 2026-05-04 19:51 | 52.15073 | 15.90272 | 8722 ft | 259 kts | 243° |
| 2026-05-04 19:51 | 52.14298 | 15.87658 | 8390 ft | 254 kts | 243° |
| 2026-05-04 19:51 | 52.13805 | 15.84980 | 8272 ft | 244 kts | 266° |
| 2026-05-04 19:52 | 52.14100 | 15.82308 | 8126 ft | 242 kts | 288° |
| 2026-05-04 19:52 | 52.15006 | 15.79928 | 7801 ft | 255 kts | 308° |
| 2026-05-04 19:52 | 52.16457 | 15.78169 | 7462 ft | 267 kts | 328° |
| 2026-05-04 19:52 | 52.18145 | 15.76852 | 7079 ft | 272 kts | 333° |
| 2026-05-04 19:53 | 52.20012 | 15.76289 | 6699 ft | 279 kts | 1° |
| 2026-05-04 19:53 | 52.21851 | 15.77244 | 6320 ft | 281 kts | 31° |
| 2026-05-04 19:53 | 52.23188 | 15.79524 | 5914 ft | 277 kts | 59° |
| 2026-05-04 19:53 | 52.24036 | 15.82290 | 5570 ft | 269 kts | 66° |
| 2026-05-04 19:54 | 52.24789 | 15.84998 | 5233 ft | 262 kts | 66° |
| 2026-05-04 19:54 | 52.25539 | 15.87675 | 4911 ft | 257 kts | 66° |
| 2026-05-04 19:54 | 52.26283 | 15.90291 | 4602 ft | 251 kts | 65° |
| 2026-05-04 19:54 | 52.27020 | 15.92861 | 4279 ft | 249 kts | 65° |
| 2026-05-04 19:55 | 52.27745 | 15.95424 | 3966 ft | 247 kts | 69° |
| 2026-05-04 19:55 | 52.27936 | 15.98073 | 3845 ft | 229 kts | 101° |
| 2026-05-04 19:55 | 52.27322 | 16.00336 | 3740 ft | 210 kts | 128° |
| 2026-05-04 19:55 | 52.26318 | 16.01911 | 3632 ft | 192 kts | 150° |
| 2026-05-04 19:56 | 52.25194 | 16.02878 | 3547 ft | 175 kts | 157° |
| 2026-05-04 19:56 | 52.24105 | 16.03708 | 3473 ft | 171 kts | 157° |
| 2026-05-04 19:56 | 52.23025 | 16.04512 | 3360 ft | 173 kts | 160° |
| 2026-05-04 19:56 | 52.21866 | 16.04553 | 3172 ft | 168 kts | 210° |
| 2026-05-04 19:57 | 52.21304 | 16.03733 | 3147 ft | 163 kts | 234° |
| 2026-05-04 19:57 | 52.20633 | 16.02184 | 2923 ft | 170 kts | 239° |
| 2026-05-04 19:57 | 52.20003 | 16.00553 | 2720 ft | 170 kts | 240° |
| 2026-05-04 19:57 | 52.19426 | 15.98889 | 2488 ft | 167 kts | 244° |
| 2026-05-04 19:58 | 52.18910 | 15.97197 | 2266 ft | 167 kts | 246° |
| 2026-05-04 19:58 | 52.18405 | 15.95479 | 2051 ft | 168 kts | 246° |
| 2026-05-04 19:58 | 52.17907 | 15.93763 | 1839 ft | 167 kts | 247° |
| 2026-05-04 19:58 | 52.17418 | 15.92077 | 1569 ft | 159 kts | 247° |
| 2026-05-04 19:59 | 52.16967 | 15.90522 | 1330 ft | 147 kts | 248° |
| 2026-05-04 19:59 | 52.16558 | 15.89118 | 1216 ft | 130 kts | 246° |
| 2026-05-04 19:59 | 52.16154 | 15.87795 | 1050 ft | 133 kts | 245° |
| 2026-05-04 19:59 | 52.15743 | 15.86420 | 931 ft | 136 kts | 246° |
| 2026-05-04 20:00 | 52.15343 | 15.85033 | 729 ft | 133 kts | 247° |
| 2026-05-04 20:00 | 52.14961 | 15.83687 | 528 ft | 129 kts | 247° |
| 2026-05-04 20:00 | 52.14581 | 15.82366 | 379 ft | 128 kts | 246° |
| 2026-05-04 20:00 | 52.14203 | 15.81063 | 206 ft | 125 kts | 246° |
| 2026-05-04 20:01 | 52.13867 | 15.79906 | 204 ft | 101 kts | 245° |
| 2026-05-04 20:01 | 52.13612 | 15.79033 | 193 ft | 66 kts | 244° |
| 2026-05-04 20:01 | 52.13473 | 15.78552 | 190 ft | 31 kts | 244° |
| 2026-05-04 20:01 | 52.13417 | 15.78368 | 193 ft | 14 kts | 243° |
| 2026-05-04 20:02 | 52.13399 | 15.78268 | 190 ft | 7 kts | 287° |
| 2026-05-04 20:02 | 52.13418 | 15.78191 | 193 ft | 7 kts | 305° |
| 2026-05-04 20:02 | 52.13461 | 15.78150 | 194 ft | 7 kts | 338° |
| 2026-05-04 20:02 | 52.13505 | 15.78117 | 194 ft | 7 kts | 334° |
| 2026-05-04 20:03 | 52.13547 | 15.78084 | 197 ft | 7 kts | 334° |
| 2026-05-04 20:03 | 52.13589 | 15.78052 | 197 ft | 7 kts | 334° |
| 2026-05-04 20:03 | 52.13631 | 15.78020 | 198 ft | 7 kts | 335° |
| 2026-05-04 20:03 | 52.13671 | 15.77989 | 204 ft | 6 kts | 334° |
| 2026-05-04 20:04 | 52.13710 | 15.77958 | 191 ft | 6 kts | 334° |
| 2026-05-04 20:04 | 52.13747 | 15.77947 | 193 ft | 4 kts | 8° |
| 2026-05-04 20:04 | 52.13766 | 15.77970 | 191 ft | 2 kts | 77° |
| 2026-05-04 20:04 | 52.13758 | 15.77987 | 201 ft | 2 kts | 139° |
| 2026-05-04 20:05 | 52.13754 | 15.77990 | 198 ft | 0 kts | 149° |